Waterville, Canada
Current Conditions -  °F | °C
As of 11:25 PM on Wednesday 26 Nov 2014 (Local Time) from CYSC Reporting Station
Light Snow Light Snow  
Wind Chill: 19°   Ceiling: 700
Heat Index: 27°   Visibility: 1.7mi
Dew Point: 27°   Wind: 7mph
Humidity: 100%   Direction: 10°N
Pressure: 29.94"   Gusts: NA
Location:  45.28°N, 71.88°W
Report Text: CYSC 270425Z AUTO 01006KT 340V050 1 3/4SM -SN BKN007 OVC016 M03/M03 A2994 RMK VIS VRB 1-3 PRESFR SLP149
Loading
Personal Weather Stations






























Interactive Weather Map New forecast layout! Learn more

10-Day Weather Forecast

Advertisements
Track Severe Weather on mobile